Time;durP1;ratioP1;P1;durP2;ratioP2;P2;SDS_P1;SDS_P2;PMS_P1;PMS_P2;Temp;Humidity;BMP_temperature;BMP_pressure;BME280_temperature;BME280_humidity;BME280_pressure;Samples;Min_cycle;Max_cycle;Signal;HPM_P1;HPM_P2
2023/10/27 00:00:40;;;;;;;8.95;6.07;;;;;;;8.02;100.00;96218.44;6111286;19;20015;-74
2023/10/27 00:02:40;;;;;;;7.70;6.10;;;;;;;8.01;100.00;96225.91;6110310;19;20003;-74
2023/10/27 00:04:41;;;;;;;8.20;5.90;;;;;;;8.03;100.00;96215.28;6108224;19;20010;-74
2023/10/27 00:06:41;;;;;;;8.02;5.60;;;;;;;8.03;100.00;96220.03;6111018;19;20342;-74
2023/10/27 00:08:42;;;;;;;9.95;6.72;;;;;;;8.06;100.00;96219.19;6110639;19;20374;-74
2023/10/27 00:10:42;;;;;;;8.27;5.70;;;;;;;8.06;100.00;96219.19;6111031;19;20014;-74
2023/10/27 00:12:43;;;;;;;8.18;6.20;;;;;;;8.07;100.00;96215.22;6107809;19;20007;-74
2023/10/27 00:14:43;;;;;;;12.48;7.57;;;;;;;8.08;100.00;96214.03;6109602;19;20377;-74
2023/10/27 00:16:43;;;;;;;6.43;5.40;;;;;;;8.08;100.00;96209.28;6110910;19;20021;-74
2023/10/27 00:18:44;;;;;;;7.90;6.18;;;;;;;8.10;100.00;96214.38;6110612;19;20010;-74
2023/10/27 00:20:44;;;;;;;10.48;6.78;;;;;;;8.09;100.00;96210.06;6110528;19;20038;-74
2023/10/27 00:22:44;;;;;;;8.57;5.72;;;;;;;8.09;100.00;96210.84;6110058;19;20010;-74
2023/10/27 00:24:45;;;;;;;9.05;6.63;;;;;;;8.08;100.00;96206.53;6109243;19;20014;-74
2023/10/27 00:26:45;;;;;;;10.40;7.38;;;;;;;8.08;100.00;96212.03;6110151;19;20490;-74
2023/10/27 00:28:46;;;;;;;9.35;7.00;;;;;;;8.06;100.00;96200.69;6107724;19;20589;-74
2023/10/27 00:30:47;;;;;;;10.20;7.18;;;;;;;8.07;100.00;96204.97;6101702;19;20136;-74
2023/10/27 00:32:47;;;;;;;10.00;6.93;;;;;;;8.07;100.00;96215.22;6102838;19;20126;-74
2023/10/27 00:34:47;;;;;;;13.25;7.75;;;;;;;8.07;100.00;96224.25;6101831;19;20018;-74
2023/10/27 00:36:48;;;;;;;9.70;6.90;;;;;;;8.08;100.00;96217.56;6103032;19;20352;-74
2023/10/27 00:38:50;;;;;;;11.00;7.32;;;;;;;8.09;100.00;96223.84;6102542;19;20866;-74
2023/10/27 00:40:50;;;;;;;10.35;7.20;;;;;;;8.08;100.00;96225.81;6102508;19;20010;-74
2023/10/27 00:42:50;;;;;;;9.30;7.13;;;;;;;8.08;100.00;96216.78;6101380;19;20832;-74
2023/10/27 00:44:51;;;;;;;11.45;7.82;;;;;;;8.07;100.00;96218.75;6099372;19;20007;-74
2023/10/27 00:46:52;;;;;;;11.07;7.32;;;;;;;8.08;100.00;96217.56;6103060;19;20062;-74
2023/10/27 00:48:53;;;;;;;10.55;7.53;;;;;;;8.08;100.00;96223.06;6103049;19;20010;-74
2023/10/27 00:50:54;;;;;;;10.15;6.88;;;;;;;8.08;100.00;96219.53;6102471;19;20002;-74
2023/10/27 00:52:54;;;;;;;10.90;7.35;;;;;;;8.09;100.00;96213.59;6103246;19;20007;-74
2023/10/27 00:54:55;;;;;;;9.70;7.60;;;;;;;8.08;100.00;96214.81;6101702;19;20006;-74
2023/10/27 00:56:57;;;;;;;10.57;7.35;;;;;;;8.12;100.00;96214.75;6103036;19;20633;-74
2023/10/27 00:58:57;;;;;;;11.18;7.38;;;;;;;8.11;100.00;96218.72;6102123;19;20006;-74
2023/10/27 01:01:01;;;;;;;12.20;7.45;;;;;;;8.14;100.00;96217.88;6102188;19;20033;-74
2023/10/27 01:03:01;;;;;;;13.38;8.43;;;;;;;8.13;100.00;96224.59;6102648;19;20349;-74
2023/10/27 01:05:01;;;;;;;12.18;8.38;;;;;;;8.11;100.00;96214.00;6101441;19;20022;-74
2023/10/27 01:07:03;;;;;;;9.95;7.03;;;;;;;8.12;100.00;96225.78;6100195;19;20002;-74
2023/10/27 01:09:03;;;;;;;11.73;7.32;;;;;;;8.09;100.00;96218.34;6101062;19;20549;-74
2023/10/27 01:11:04;;;;;;;11.82;8.23;;;;;;;8.10;100.00;96222.63;6100836;19;20090;-74
2023/10/27 01:13:04;;;;;;;11.70;8.18;;;;;;;8.08;100.00;96223.06;6102266;19;20007;-74
2023/10/27 01:15:05;;;;;;;11.57;7.93;;;;;;;8.06;100.00;96213.66;6101178;19;20006;-74
2023/10/27 01:17:05;;;;;;;12.20;8.43;;;;;;;8.09;100.00;96221.09;6099384;19;20132;-74
2023/10/27 01:19:06;;;;;;;10.07;7.47;;;;;;;8.13;100.00;96222.59;6102071;19;20042;-74
2023/10/27 01:21:06;;;;;;;13.57;8.07;;;;;;;8.12;100.00;96225.78;6102052;19;20388;-74
2023/10/27 01:23:06;;;;;;;11.13;7.63;;;;;;;8.10;100.00;96222.63;6101554;19;20007;-74
2023/10/27 01:25:07;;;;;;;12.35;9.05;;;;;;;8.08;100.00;96227.78;6099217;19;20015;-74
2023/10/27 01:27:07;;;;;;;17.60;9.23;;;;;;;8.07;100.00;96221.50;6101438;19;20015;-74
2023/10/27 01:29:08;;;;;;;13.05;8.75;;;;;;;8.07;100.00;96217.97;6101833;19;20006;-74
2023/10/27 01:31:08;;;;;;;13.32;8.80;;;;;;;8.10;100.00;96222.63;6106462;19;20491;-74
2023/10/27 01:33:08;;;;;;;10.75;7.35;;;;;;;8.10;100.00;96222.63;6107478;19;20010;-74
2023/10/27 01:35:09;;;;;;;13.07;9.02;;;;;;;8.07;100.00;96224.25;6106943;19;20010;-74
2023/10/27 01:37:09;;;;;;;13.32;8.70;;;;;;;8.08;100.00;96225.81;6108228;19;20011;-74
2023/10/27 01:39:11;;;;;;;14.40;8.95;;;;;;;8.03;100.00;96220.78;6107857;19;19999;-74
2023/10/27 01:41:11;;;;;;;13.20;9.13;;;;;;;8.06;100.00;96227.44;6107100;19;20029;-74
2023/10/27 01:43:12;;;;;;;14.13;8.13;;;;;;;8.04;100.00;96224.31;6109275;19;19999;-74
2023/10/27 01:45:13;;;;;;;15.77;9.35;;;;;;;8.06;100.00;96219.94;6106611;19;20007;-74
2023/10/27 01:47:13;;;;;;;14.50;9.05;;;;;;;8.08;100.00;96220.31;6108013;19;20336;-74
2023/10/27 01:49:14;;;;;;;13.05;8.93;;;;;;;8.04;100.00;96216.06;6108506;19;20018;-74
2023/10/27 01:51:14;;;;;;;12.95;8.95;;;;;;;8.02;100.00;96216.47;6106899;19;20014;-74
2023/10/27 01:53:15;;;;;;;15.85;9.82;;;;;;;7.98;100.00;96226.75;6108470;19;20010;-74
2023/10/27 01:55:16;;;;;;;16.08;9.98;;;;;;;7.96;100.00;96223.66;6106592;19;20140;-74
2023/10/27 01:57:16;;;;;;;15.38;10.10;;;;;;;7.99;100.00;96224.78;6107008;19;20039;-74
2023/10/27 01:59:17;;;;;;;19.13;10.52;;;;;;;7.94;100.00;96223.25;6108134;19;20078;-74
2023/10/27 02:01:18;;;;;;;16.40;10.00;;;;;;;7.92;100.00;96222.91;6107945;19;20106;-74
2023/10/27 02:03:18;;;;;;;16.42;10.07;;;;;;;7.91;100.00;96221.34;6107776;19;20049;-74
2023/10/27 02:05:19;;;;;;;18.05;10.05;;;;;;;7.92;100.00;96222.13;6106978;19;20491;-74
2023/10/27 02:07:23;;;;;;;15.25;10.05;;;;;;;7.91;100.00;96215.84;6107475;19;20066;-74
2023/10/27 02:09:24;;;;;;;15.77;9.25;;;;;;;7.91;100.00;96213.09;6106842;19;20016;-74
2023/10/27 02:11:24;;;;;;;17.67;10.18;;;;;;;7.91;100.00;96212.31;6107315;19;20527;-74
2023/10/27 02:13:24;;;;;;;16.05;10.13;;;;;;;7.91;100.00;96209.56;6107347;19;20007;-74
2023/10/27 02:15:25;;;;;;;14.75;9.05;;;;;;;7.87;100.00;96209.63;6107177;19;20017;-74
2023/10/27 02:17:27;;;;;;;18.80;10.98;;;;;;;7.84;100.00;96211.22;6107894;19;20010;-74
2023/10/27 02:19:27;;;;;;;14.68;9.15;;;;;;;7.86;100.00;96208.03;6107712;19;20099;-74
2023/10/27 02:21:27;;;;;;;18.25;10.32;;;;;;;7.88;100.00;96205.66;6106974;19;19998;-74
2023/10/27 02:23:28;;;;;;;18.25;10.35;;;;;;;7.85;100.00;96201.75;6106385;19;20007;-74
2023/10/27 02:25:28;;;;;;;15.88;9.27;;;;;;;7.88;100.00;96191.91;6105429;19;20010;-74
2023/10/27 02:27:30;;;;;;;13.25;8.85;;;;;;;7.87;100.00;96191.13;6108962;19;20307;-74
2023/10/27 02:29:31;;;;;;;19.42;10.80;;;;;;;7.88;100.00;96195.44;6113020;19;20356;-74
2023/10/27 02:31:31;;;;;;;17.35;11.32;;;;;;;7.86;100.00;96194.28;6110621;19;19998;-73
2023/10/27 02:33:31;;;;;;;17.42;10.98;;;;;;;7.87;100.00;96201.38;6111653;19;20002;-74
2023/10/27 02:35:32;;;;;;;17.30;10.98;;;;;;;7.86;100.00;96197.03;6113456;19;20026;-74
2023/10/27 02:37:32;;;;;;;17.23;10.48;;;;;;;7.89;100.00;96198.97;6112269;19;20010;-74
2023/10/27 02:39:33;;;;;;;15.20;9.55;;;;;;;7.87;100.00;96193.88;6112094;19;20007;-74
2023/10/27 02:41:35;;;;;;;18.10;10.38;;;;;;;7.83;100.00;96190.38;6113121;19;20006;-74
2023/10/27 02:43:37;;;;;;;;;;;;;;;7.88;100.00;96198.19;6113068;19;20023;-74
2023/10/27 02:45:38;;;;;;;17.30;10.30;;;;;;;7.85;100.00;96190.75;6112312;19;19922;-74
2023/10/27 02:47:38;;;;;;;15.00;9.25;;;;;;;7.82;100.00;96185.31;6113264;19;20009;-74
2023/10/27 02:49:38;;;;;;;17.85;9.93;;;;;;;7.80;100.00;96180.22;6112555;19;20345;-74
2023/10/27 02:51:39;;;;;;;17.23;10.55;;;;;;;7.81;100.00;96179.00;6112023;19;20009;-74
2023/10/27 02:53:39;;;;;;;22.48;10.93;;;;;;;7.78;100.00;96177.09;6110751;19;20022;-74
2023/10/27 02:55:39;;;;;;;20.58;10.40;;;;;;;7.82;100.00;96179.78;6112930;19;20849;-74
2023/10/27 02:57:40;;;;;;;17.13;9.70;;;;;;;7.81;100.00;96169.97;6112517;19;20010;-74
2023/10/27 02:59:40;;;;;;;15.18;9.70;;;;;;;7.78;100.00;96171.59;6111998;19;20074;-74
2023/10/27 03:01:43;;;;;;;19.88;10.60;;;;;;;7.82;100.00;96177.81;6112071;19;20010;-74
2023/10/27 03:03:45;;;;;;;16.10;9.63;;;;;;;7.78;100.00;96168.84;6111226;19;19999;-74
2023/10/27 03:05:45;;;;;;;17.63;9.68;;;;;;;7.77;100.00;96161.75;6111978;19;20036;-74
2023/10/27 03:07:46;;;;;;;19.08;10.27;;;;;;;7.81;100.00;96159.75;6111084;19;20002;-74
2023/10/27 03:09:46;;;;;;;17.58;10.63;;;;;;;7.80;100.00;96155.44;6112352;19;20695;-74
2023/10/27 03:11:46;;;;;;;16.83;9.82;;;;;;;7.80;100.00;96157.41;6111922;19;20352;-74
2023/10/27 03:13:47;;;;;;;17.52;9.75;;;;;;;7.78;100.00;96157.06;6111026;19;20002;-74
2023/10/27 03:15:47;;;;;;;17.27;9.82;;;;;;;7.79;100.00;96147.59;6111822;19;20013;-74
2023/10/27 03:17:48;;;;;;;18.48;10.13;;;;;;;7.77;100.00;96144.47;6112683;19;20471;-74
2023/10/27 03:19:49;;;;;;;17.63;10.27;;;;;;;7.77;100.00;96147.22;6111853;19;20078;-74
2023/10/27 03:21:49;;;;;;;16.90;10.18;;;;;;;7.78;100.00;96155.09;6110475;19;19999;-74
2023/10/27 03:23:49;;;;;;;18.80;10.90;;;;;;;7.77;100.00;96149.97;6111302;19;20010;-74
2023/10/27 03:25:50;;;;;;;20.15;10.30;;;;;;;7.77;100.00;96161.75;6110667;19;20078;-74
2023/10/27 03:27:51;;;;;;;18.35;11.13;;;;;;;7.75;100.00;96144.09;6111029;19;20007;-74
2023/10/27 03:29:51;;;;;;;20.25;11.35;;;;;;;7.74;100.00;96139.81;6111672;19;20803;-74
2023/10/27 03:31:51;;;;;;;18.65;10.50;;;;;;;7.76;100.00;96146.44;6109400;19;20002;-74
2023/10/27 03:33:52;;;;;;;16.67;10.32;;;;;;;7.75;100.00;96141.34;6109920;19;20386;-74
2023/10/27 03:35:52;;;;;;;17.35;10.00;;;;;;;7.74;100.00;96148.84;6112177;19;20014;-74
2023/10/27 03:37:53;;;;;;;16.85;10.00;;;;;;;7.76;100.00;96156.66;6111402;19;20107;-74
2023/10/27 03:39:53;;;;;;;20.20;11.50;;;;;;;7.78;100.00;96157.84;6107878;19;19999;-75
2023/10/27 03:41:53;;;;;;;22.52;11.88;;;;;;;7.78;100.00;96157.06;6111043;19;20006;-74
2023/10/27 03:43:54;;;;;;;19.77;11.05;;;;;;;7.75;100.00;96166.13;6109901;19;20022;-74
2023/10/27 03:45:55;;;;;;;19.05;11.05;;;;;;;7.75;100.00;96155.91;6109798;19;20007;-74
2023/10/27 03:47:55;;;;;;;19.70;10.35;;;;;;;7.74;100.00;96168.09;6111124;19;20010;-74
2023/10/27 03:49:55;;;;;;;17.70;11.02;;;;;;;7.75;100.00;96172.41;6110703;19;20037;-74
2023/10/27 03:51:57;;;;;;;19.60;11.73;;;;;;;7.73;100.00;96169.31;6109928;19;20015;-74
2023/10/27 03:53:57;;;;;;;16.90;9.75;;;;;;;7.73;100.00;96174.03;6110253;19;20044;-74
2023/10/27 03:55:57;;;;;;;19.42;10.80;;;;;;;7.74;100.00;96176.38;6110303;19;20019;-74
2023/10/27 03:58:17;;;;;;;18.85;11.15;;;;;;;7.73;100.00;96174.81;6111947;19;20006;-74
2023/10/27 04:00:17;;;;;;;18.77;10.07;;;;;;;7.75;100.00;96172.41;6008291;19;2006057;-74
2023/10/27 04:02:18;;;;;;;20.63;11.80;;;;;;;7.74;100.00;96170.84;6109211;19;20010;-74
2023/10/27 04:04:18;;;;;;;18.13;11.07;;;;;;;7.74;100.00;96179.13;6108273;19;20006;-74
2023/10/27 04:06:18;;;;;;;20.63;12.50;;;;;;;7.77;100.00;96181.03;6109325;19;20007;-74
2023/10/27 04:08:19;;;;;;;23.42;12.85;;;;;;;7.77;100.00;96180.25;6110616;19;20022;-74
2023/10/27 04:10:21;;;;;;;20.65;11.75;;;;;;;7.75;100.00;96175.16;6111087;19;20006;-74
2023/10/27 04:12:21;;;;;;;21.52;12.27;;;;;;;7.76;100.00;96182.22;6110322;19;20015;-74
2023/10/27 04:14:21;;;;;;;20.27;11.13;;;;;;;7.76;100.00;96176.72;6109503;19;20478;-74
2023/10/27 04:16:22;;;;;;;19.35;10.70;;;;;;;7.77;100.00;96180.25;6108952;19;20025;-74
2023/10/27 04:18:22;;;;;;;19.50;11.05;;;;;;;7.79;100.00;96173.16;6110007;19;20459;-74
2023/10/27 04:20:23;;;;;;;19.50;11.38;;;;;;;7.81;100.00;96175.47;6109477;19;20011;-74
2023/10/27 04:22:23;;;;;;;18.02;11.27;;;;;;;7.82;100.00;96182.56;6108918;19;20012;-74
2023/10/27 04:24:24;;;;;;;21.80;12.48;;;;;;;7.78;100.00;96185.38;6109388;19;20014;-74
2023/10/27 04:26:24;;;;;;;19.98;11.82;;;;;;;7.78;100.00;96188.13;6109341;19;20070;-74
2023/10/27 04:28:25;;;;;;;27.48;16.65;;;;;;;7.77;100.00;96194.78;6099626;19;20003;-74
2023/10/27 04:30:26;;;;;;;25.92;15.00;;;;;;;7.77;100.00;96183.78;6108151;19;20372;-74
2023/10/27 04:32:26;;;;;;;21.30;12.82;;;;;;;7.75;100.00;96175.16;6109914;19;20018;-74
2023/10/27 04:34:26;;;;;;;23.60;12.07;;;;;;;7.75;100.00;96180.66;6108493;19;20007;-74
2023/10/27 04:36:27;;;;;;;21.02;12.23;;;;;;;7.77;100.00;96183.00;6106293;19;20011;-74
2023/10/27 04:38:27;;;;;;;23.10;12.00;;;;;;;7.75;100.00;96177.91;6107963;19;20094;-74
2023/10/27 04:40:28;;;;;;;23.08;11.80;;;;;;;7.74;100.00;96184.63;6108119;19;20007;-74
2023/10/27 04:42:29;;;;;;;20.33;11.15;;;;;;;7.75;100.00;96186.16;6103793;19;20017;-75
2023/10/27 04:44:29;;;;;;;21.38;12.25;;;;;;;7.73;100.00;96183.06;6103903;19;20345;-74
2023/10/27 04:46:30;;;;;;;17.65;9.98;;;;;;;7.72;100.00;96177.97;6105728;19;20487;-74
2023/10/27 04:48:30;;;;;;;21.42;12.00;;;;;;;7.73;100.00;96185.03;6109177;19;20027;-74
2023/10/27 04:50:35;;;;;;;22.50;12.02;;;;;;;7.74;100.00;96181.09;6106458;19;20014;-74
2023/10/27 04:52:35;;;;;;;18.58;10.55;;;;;;;7.74;100.00;96187.38;6104240;19;20013;-74
2023/10/27 04:54:35;;;;;;;20.50;11.18;;;;;;;7.74;100.00;96179.13;6107404;19;20002;-74
2023/10/27 04:56:36;;;;;;;21.52;12.45;;;;;;;7.74;100.00;96192.88;6108698;19;20013;-74
2023/10/27 04:58:37;;;;;;;23.30;12.15;;;;;;;7.74;100.00;96189.34;6108057;19;19999;-74
2023/10/27 05:00:38;;;;;;;21.03;12.20;;;;;;;7.71;100.00;96181.94;6109514;19;20338;-74
2023/10/27 05:02:38;;;;;;;21.92;11.02;;;;;;;7.72;100.00;96187.00;6108612;19;20010;-74
2023/10/27 05:04:38;;;;;;;21.55;11.80;;;;;;;7.69;100.00;96179.56;6105852;19;20018;-74
2023/10/27 05:06:39;;;;;;;19.85;10.50;;;;;;;7.71;100.00;96182.72;6109530;19;19998;-74
2023/10/27 05:08:39;;;;;;;22.73;11.73;;;;;;;7.75;100.00;96177.13;6108716;19;20019;-74
2023/10/27 05:10:40;;;;;;;24.70;12.25;;;;;;;7.79;100.00;96175.13;6107935;19;20146;-74
2023/10/27 05:12:41;;;;;;;21.80;11.40;;;;;;;7.76;100.00;96187.72;6109116;19;21095;-74
2023/10/27 05:14:41;;;;;;;22.52;12.15;;;;;;;7.74;100.00;96173.59;6107051;19;20002;-74
2023/10/27 05:16:41;;;;;;;20.88;10.65;;;;;;;7.72;100.00;96175.22;6108202;19;20006;-74
2023/10/27 05:18:42;;;;;;;24.20;12.13;;;;;;;7.69;100.00;96176.03;6108283;19;20027;-74
2023/10/27 05:20:42;;;;;;;24.02;12.25;;;;;;;7.72;100.00;96176.00;6108873;19;20007;-74
2023/10/27 05:22:42;;;;;;;22.75;11.68;;;;;;;7.69;100.00;96176.81;6109387;19;20384;-74
2023/10/27 05:24:43;;;;;;;23.65;12.13;;;;;;;7.68;100.00;96182.75;6107337;19;20432;-74
2023/10/27 05:26:43;;;;;;;24.73;13.30;;;;;;;7.66;100.00;96182.38;6107967;19;20017;-74
2023/10/27 05:28:43;;;;;;;25.45;13.07;;;;;;;7.66;100.00;96177.66;6105756;19;20372;-74
2023/10/27 05:30:46;;;;;;;25.80;12.00;;;;;;;7.67;100.00;96184.72;6100717;19;20455;-74
2023/10/27 05:32:47;;;;;;;22.40;12.18;;;;;;;7.65;100.00;96167.06;6100568;19;20448;-74
2023/10/27 05:34:47;;;;;;;26.90;13.07;;;;;;;7.69;100.00;96179.56;6100011;19;20015;-74
2023/10/27 05:36:48;;;;;;;27.70;12.73;;;;;;;7.70;100.00;96172.91;6098675;19;20024;-74
2023/10/27 05:38:48;;;;;;;26.75;13.43;;;;;;;7.71;100.00;96165.41;6098908;19;20036;-74
2023/10/27 05:40:49;;;;;;;28.13;13.43;;;;;;;7.70;100.00;96164.63;6101510;19;20034;-74
2023/10/27 05:42:49;;;;;;;26.38;13.38;;;;;;;7.70;100.00;96161.88;6101482;19;20078;-74
2023/10/27 05:44:49;;;;;;;25.67;12.73;;;;;;;7.68;100.00;96161.50;6099604;19;20403;-74
2023/10/27 05:46:50;;;;;;;23.33;13.15;;;;;;;7.68;100.00;96149.72;6101625;19;20459;-74
2023/10/27 05:48:50;;;;;;;29.90;13.40;;;;;;;7.69;100.00;96154.81;6100136;19;20058;-74
2023/10/27 05:50:50;;;;;;;20.77;12.23;;;;;;;7.70;100.00;96148.13;6099296;19;20463;-74
2023/10/27 05:52:51;;;;;;;25.33;13.45;;;;;;;7.71;100.00;96148.91;6101688;19;20013;-74
2023/10/27 05:54:51;;;;;;;25.05;13.88;;;;;;;7.69;100.00;96154.81;6099598;19;20359;-74
2023/10/27 05:56:52;;;;;;;31.40;14.55;;;;;;;7.69;100.00;96154.03;6101102;19;20048;-74
2023/10/27 05:58:52;;;;;;;26.02;13.75;;;;;;;7.70;100.00;96150.88;6101066;19;20011;-74
2023/10/27 06:00:53;;;;;;;25.23;13.10;;;;;;;7.70;100.00;96147.34;6100095;19;20011;-74
2023/10/27 06:02:53;;;;;;;28.80;14.45;;;;;;;7.67;100.00;96159.94;6098766;19;20099;-74
2023/10/27 06:04:53;;;;;;;26.67;13.80;;;;;;;7.64;100.00;96157.25;6098862;19;20011;-74
2023/10/27 06:06:54;;;;;;;27.80;12.85;;;;;;;7.64;100.00;96166.28;6100701;19;20017;-75
2023/10/27 06:08:55;;;;;;;28.13;14.45;;;;;;;7.64;100.00;96169.03;6099955;19;20011;-74
2023/10/27 06:10:55;;;;;;;27.02;14.30;;;;;;;7.60;100.00;96162.78;6098860;19;20017;-74
2023/10/27 06:12:56;;;;;;;28.15;13.85;;;;;;;7.57;100.00;96158.91;6097535;19;20002;-74
2023/10/27 06:14:56;;;;;;;27.55;13.27;;;;;;;7.57;100.00;96158.91;6096976;19;20470;-74
2023/10/27 06:16:56;;;;;;;27.27;14.07;;;;;;;7.57;100.00;96172.66;6094554;19;20494;-74
2023/10/27 06:18:57;;;;;;;27.58;14.40;;;;;;;7.55;100.00;96164.06;6100503;19;20006;-74
2023/10/27 06:20:57;;;;;;;26.83;14.10;;;;;;;7.55;100.00;96175.06;6099165;19;20459;-74
2023/10/27 06:22:57;;;;;;;31.75;14.02;;;;;;;7.53;100.00;96179.41;6100656;19;20010;-74
2023/10/27 06:24:58;;;;;;;29.85;14.65;;;;;;;7.52;100.00;96173.13;6098531;19;20274;-74
2023/10/27 06:26:58;;;;;;;26.58;14.13;;;;;;;7.56;100.00;96184.09;6100487;19;20406;-74
2023/10/27 06:28:58;;;;;;;26.67;13.63;;;;;;;7.55;100.00;96186.06;6101060;19;20013;-74
2023/10/27 06:30:59;;;;;;;25.35;13.32;;;;;;;7.58;100.00;96187.97;6105277;19;20633;-74
2023/10/27 06:32:59;;;;;;;30.63;16.85;;;;;;;7.65;100.00;96200.88;6107429;19;20042;-74
2023/10/27 06:35:00;;;;;;;32.13;17.73;;;;;;;7.64;100.00;96196.56;6104044;19;20113;-74
2023/10/27 06:37:01;;;;;;;24.92;14.88;;;;;;;7.66;100.00;96190.63;6105656;19;20006;-74
2023/10/27 06:39:01;;;;;;;27.98;15.02;;;;;;;7.72;100.00;96197.25;6097809;19;20319;-74
2023/10/27 06:41:01;;;;;;;31.55;14.63;;;;;;;7.71;100.00;96185.47;6103759;19;20034;-74
2023/10/27 06:43:03;;;;;;;26.98;12.93;;;;;;;7.73;100.00;96188.56;6107469;19;20080;-74
2023/10/27 06:45:03;;;;;;;25.05;12.95;;;;;;;7.71;100.00;96185.47;6105153;19;20017;-74
2023/10/27 06:47:04;;;;;;;24.55;12.02;;;;;;;7.73;100.00;96188.56;6107418;19;20014;-74
2023/10/27 06:49:04;;;;;;;21.88;11.68;;;;;;;7.74;100.00;96192.09;6106813;19;20011;-74
2023/10/27 06:51:05;;;;;;;28.70;13.93;;;;;;;7.71;100.00;96190.97;6106788;19;20015;-74
2023/10/27 06:53:05;;;;;;;28.13;13.77;;;;;;;7.73;100.00;96190.53;6107711;19;20019;-74
2023/10/27 06:55:06;;;;;;;24.65;13.10;;;;;;;7.76;100.00;96190.47;6106049;19;20011;-74
2023/10/27 06:57:07;;;;;;;26.48;13.52;;;;;;;7.76;100.00;96197.97;6106539;19;20006;-74
2023/10/27 06:59:08;;;;;;;24.35;12.15;;;;;;;7.78;100.00;96204.63;6107576;19;20063;-74
2023/10/27 07:01:08;;;;;;;23.75;12.07;;;;;;;7.78;100.00;96204.63;6105905;19;20002;-74
2023/10/27 07:03:09;;;;;;;23.67;13.73;;;;;;;7.78;100.00;96201.88;6107712;19;20014;-74
2023/10/27 07:05:13;;;;;;;24.95;12.65;;;;;;;7.82;100.00;96208.09;6104657;19;20014;-74
2023/10/27 07:07:13;;;;;;;27.30;13.43;;;;;;;7.83;100.00;96223.41;6107348;19;20204;-74
2023/10/27 07:09:14;;;;;;;23.27;12.93;;;;;;;7.83;100.00;96211.63;6106402;19;20387;-74
2023/10/27 07:11:14;;;;;;;26.67;12.45;;;;;;;7.84;100.00;96216.72;6106784;19;20006;-74
2023/10/27 07:13:14;;;;;;;23.83;12.10;;;;;;;7.82;100.00;96213.59;6105558;19;20062;-74
2023/10/27 07:15:15;;;;;;;25.88;12.93;;;;;;;7.85;100.00;96214.75;6109592;19;20014;-74
2023/10/27 07:17:15;;;;;;;20.85;12.13;;;;;;;7.87;100.00;96213.16;6111714;19;20010;-73
2023/10/27 07:19:15;;;;;;;26.55;13.02;;;;;;;7.87;100.00;96210.41;6112390;19;20011;-74
2023/10/27 07:21:16;;;;;;;31.52;14.95;;;;;;;7.92;100.00;96208.34;6112060;19;20415;-73
2023/10/27 07:23:16;;;;;;;24.40;12.63;;;;;;;7.89;100.00;96208.00;6112290;19;20019;-74
2023/10/27 07:25:17;;;;;;;24.42;12.95;;;;;;;7.92;100.00;96205.59;6109931;19;20447;-74
2023/10/27 07:27:17;;;;;;;22.60;12.13;;;;;;;7.91;100.00;96204.84;6112904;19;20373;-74
2023/10/27 07:29:18;;;;;;;24.85;12.45;;;;;;;7.91;100.00;96207.59;6111326;19;20430;-74
2023/10/27 07:31:18;;;;;;;19.13;10.52;;;;;;;7.90;100.00;96203.28;6111964;19;20077;-74
2023/10/27 07:33:19;;;;;;;24.52;12.63;;;;;;;7.91;100.00;96204.06;6111644;19;20027;-74
2023/10/27 07:35:19;;;;;;;27.85;14.02;;;;;;;7.93;100.00;96207.94;6111906;19;20007;-74
2023/10/27 07:37:21;;;;;;;23.23;11.85;;;;;;;7.92;100.00;96214.66;6111880;19;20023;-74
2023/10/27 07:39:22;;;;;;;25.58;12.50;;;;;;;7.95;100.00;96213.06;6112165;19;20007;-74
2023/10/27 07:41:23;;;;;;;25.52;12.95;;;;;;;7.95;100.00;96211.09;6111410;19;20034;-75
2023/10/27 07:43:25;;;;;;;25.88;12.75;;;;;;;7.96;100.00;96209.88;6110868;19;20011;-74
2023/10/27 07:45:25;;;;;;;26.75;12.77;;;;;;;7.97;100.00;96216.16;6110944;19;20010;-73
2023/10/27 07:47:25;;;;;;;23.88;12.68;;;;;;;7.99;100.00;96211.00;6112042;19;20024;-74
2023/10/27 07:49:26;;;;;;;26.92;13.50;;;;;;;8.02;100.00;96216.47;6112055;19;20006;-74
2023/10/27 07:51:26;;;;;;;23.58;11.95;;;;;;;8.04;100.00;96221.56;6111222;19;20002;-74
2023/10/27 07:53:28;;;;;;;25.77;12.57;;;;;;;8.06;100.00;96219.19;6110446;19;20018;-74
2023/10/27 07:55:28;;;;;;;26.70;12.60;;;;;;;8.12;100.00;96220.28;6111737;19;20010;-73
2023/10/27 07:57:28;;;;;;;27.15;13.50;;;;;;;8.15;100.00;96222.97;6111063;19;20030;-74
2023/10/27 07:59:29;;;;;;;25.15;13.20;;;;;;;8.16;100.00;96210.75;6111244;19;20573;-75
2023/10/27 08:01:29;;;;;;;25.90;12.45;;;;;;;8.21;100.00;96211.47;6111144;19;20074;-74
2023/10/27 08:03:29;;;;;;;27.30;12.05;;;;;;;8.22;100.00;96197.28;6110210;19;20017;-74
2023/10/27 08:05:30;;;;;;;26.85;12.10;;;;;;;8.27;100.00;96210.56;6110752;19;20024;-74
2023/10/27 08:07:30;;;;;;;25.75;13.70;;;;;;;8.31;100.00;96210.53;6110991;19;20009;-74
2023/10/27 08:09:31;;;;;;;27.88;12.52;;;;;;;8.33;100.00;96214.41;6111471;19;20017;-74
2023/10/27 08:11:32;;;;;;;29.38;14.90;;;;;;;8.35;100.00;96201.03;6111056;19;20031;-74
2023/10/27 08:13:33;;;;;;;29.67;13.52;;;;;;;8.38;100.00;96205.72;6109269;19;20011;-74
2023/10/27 08:15:34;;;;;;;25.83;13.15;;;;;;;8.41;100.00;96201.34;6110934;19;20038;-74
2023/10/27 08:17:34;;;;;;;24.15;12.80;;;;;;;8.42;100.00;96200.13;6111256;19;20070;-74
2023/10/27 08:19:35;;;;;;;24.73;13.43;;;;;;;8.44;100.00;96200.53;6111121;19;20030;-73
2023/10/27 08:21:35;;;;;;;25.02;12.55;;;;;;;8.46;100.00;96206.38;6110273;19;20011;-74
2023/10/27 08:23:36;;;;;;;23.92;13.18;;;;;;;8.44;100.00;96204.06;6109716;19;20021;-74
2023/10/27 08:25:36;;;;;;;24.13;13.40;;;;;;;8.47;100.00;96201.66;6109805;19;20010;-74
2023/10/27 08:27:37;;;;;;;33.28;16.52;;;;;;;8.49;100.00;96204.75;6110355;19;20335;-74
2023/10/27 08:29:37;;;;;;;29.73;15.23;;;;;;;8.52;100.00;96199.16;6110805;19;20010;-74
2023/10/27 08:31:38;;;;;;;26.90;11.77;;;;;;;8.56;100.00;96194.41;6109745;19;20474;-74
2023/10/27 08:33:39;;;;;;;18.73;10.73;;;;;;;8.61;100.00;96190.38;6109446;19;20377;-74
2023/10/27 08:35:40;;;;;;;22.45;12.35;;;;;;;8.63;100.00;96187.97;6109872;19;20002;-74
2023/10/27 08:37:40;;;;;;;20.73;11.35;;;;;;;8.65;100.00;96185.56;6109193;19;20042;-74
2023/10/27 08:39:41;;;;;;;24.33;12.75;;;;;;;8.69;100.00;96184.31;6109854;19;20014;-74
2023/10/27 08:41:41;;;;;;;37.70;16.25;;;;;;;8.77;100.00;96189.69;6109390;19;20086;-74
2023/10/27 08:43:42;;;;;;;28.35;14.70;;;;;;;8.81;100.00;96188.44;6109078;19;20011;-74
2023/10/27 08:45:43;;;;;;;28.42;14.48;;;;;;;8.85;100.00;96202.16;6110061;19;20128;-74
2023/10/27 08:47:43;;;;;;;36.10;15.80;;;;;;;8.86;100.00;96198.22;6109957;19;20063;-74
2023/10/27 08:49:46;;;;;;;29.30;14.68;;;;;;;8.89;100.00;96198.13;6108890;19;20475;-74
2023/10/27 08:51:46;;;;;;;;;;;;;;;8.93;100.00;96204.34;6110716;19;20011;-74
2023/10/27 08:53:47;;;;;;;23.50;13.20;;;;;;;8.94;100.00;96200.41;6108627;19;19918;-74
2023/10/27 08:55:49;;;;;;;26.98;12.73;;;;;;;8.98;100.00;96209.38;6109163;19;20475;-74
2023/10/27 08:57:49;;;;;;;27.42;14.00;;;;;;;9.00;100.00;96214.47;6109753;19;20009;-74
2023/10/27 08:59:50;;;;;;;32.30;16.63;;;;;;;9.00;100.00;96214.47;6108951;19;20014;-74
2023/10/27 09:01:53;;;;;;;29.63;15.32;;;;;;;9.00;100.00;96223.53;6108657;19;20031;-74
2023/10/27 09:04:13;;;;;;;29.20;17.45;;;;;;;9.03;100.00;96230.19;6108806;19;20023;-74
2023/10/27 09:06:14;;;;;;;36.05;16.83;;;;;;;9.01;100.00;96233.34;6006128;19;2006258;-74
2023/10/27 09:08:15;;;;;;;25.20;13.70;;;;;;;8.99;100.00;96213.69;6109696;19;20092;-74
2023/10/27 09:10:18;;;;;;;31.70;15.95;;;;;;;9.00;100.00;96220.78;6108686;19;20003;-74
2023/10/27 09:12:23;;;;;;;31.08;16.00;;;;;;;9.05;100.00;96221.50;6108944;19;20006;-74
2023/10/27 09:14:30;;;;;;;29.23;14.63;;;;;;;9.05;100.00;96224.25;6108930;19;20018;-74
2023/10/27 09:16:30;;;;;;;31.95;13.88;;;;;;;9.05;100.00;96233.31;6109513;19;20021;-74